Time;durP1;ratioP1;P1;durP2;ratioP2;P2;SDS_P1;SDS_P2;PMS_P1;PMS_P2;Temp;Humidity;BMP_temperature;BMP_pressure;BME280_temperature;BME280_humidity;BME280_pressure;Samples;Min_cycle;Max_cycle;Signal;HPM_P1;HPM_P2
2022/09/04 00:01:01;;;;;;;6.00;2.10;;;16.40;88.50;;;;;;5098722;27;20077;-62
2022/09/04 00:03:44;;;;;;;5.95;1.83;;;16.40;88.40;;;;;;5114947;27;20035;-62
2022/09/04 00:06:18;;;;;;;7.75;1.80;;;16.40;88.50;;;;;;5108900;28;20042;-62
2022/09/04 00:09:05;;;;;;;6.20;1.80;;;16.40;88.50;;;;;;5094759;28;20040;-62
2022/09/04 00:12:03;;;;;;;4.35;1.90;;;16.30;88.50;;;;;;5078060;28;20495;-62
2022/09/04 00:14:49;;;;;;;8.07;2.20;;;16.30;88.70;;;;;;5095164;28;20121;-62
2022/09/04 00:17:20;;;;;;;3.25;1.63;;;16.30;88.90;;;;;;5093789;28;20036;-62
2022/09/04 00:19:58;;;;;;;4.38;1.65;;;16.20;89.00;;;;;;5077951;28;20093;-63
2022/09/04 00:22:45;;;;;;;5.20;1.85;;;16.20;89.10;;;;;;5091423;28;20040;-62
2022/09/04 00:25:22;;;;;;;5.00;1.85;;;16.20;89.30;;;;;;5074211;28;20039;-62
2022/09/04 00:27:59;;;;;;;4.85;1.80;;;16.20;89.40;;;;;;5074545;28;20044;-63
2022/09/04 00:30:25;;;;;;;7.03;1.73;;;16.10;89.70;;;;;;5090754;28;20389;-62
2022/09/04 00:32:57;;;;;;;5.28;2.05;;;16.10;90.00;;;;;;5110123;28;20039;-62
2022/09/04 00:35:37;;;;;;;6.30;2.13;;;16.00;90.00;;;;;;5112427;28;20073;-67
2022/09/04 00:38:15;;;;;;;5.15;1.80;;;16.00;90.10;;;;;;5076885;28;20185;-67
2022/09/04 00:41:02;;;;;;;8.07;1.88;;;16.00;90.20;;;;;;5094519;28;20401;-67
2022/09/04 00:44:13;;;;;;;4.70;1.60;;;15.90;90.30;;;;;;5113160;28;20110;-67
2022/09/04 00:47:12;;;;;;;7.50;2.22;;;15.90;90.40;;;;;;5065061;28;20093;-67
2022/09/04 00:50:06;;;;;;;4.60;2.03;;;15.90;90.50;;;;;;5114413;28;20171;-68
2022/09/04 00:52:53;;;;;;;4.53;1.85;;;15.80;90.60;;;;;;5133063;27;20043;-67
2022/09/04 00:55:56;;;;;;;4.38;1.80;;;15.80;90.90;;;;;;5092623;28;20361;-67
2022/09/04 00:58:40;;;;;;;6.75;2.08;;;15.70;91.00;;;;;;5093685;28;21006;-67
2022/09/04 01:01:09;;;;;;;10.30;1.90;;;15.70;91.20;;;;;;5079819;28;20078;-67
2022/09/04 01:03:58;;;;;;;4.25;1.85;;;15.60;91.30;;;;;;5116991;28;20043;-67
2022/09/04 01:06:34;;;;;;;4.07;1.88;;;15.60;91.30;;;;;;5115952;28;20035;-67
2022/09/04 01:09:37;;;;;;;7.07;1.95;;;15.60;91.50;;;;;;5098633;28;20048;-67
2022/09/04 01:12:39;;;;;;;5.57;2.00;;;15.60;91.50;;;;;;5060449;28;20040;-67
2022/09/04 01:15:19;;;;;;;5.10;2.05;;;15.50;91.80;;;;;;5085046;28;20040;-67
2022/09/04 01:18:08;;;;;;;6.45;2.13;;;15.50;91.90;;;;;;5061278;28;20052;-67
2022/09/04 01:21:05;;;;;;;6.90;2.15;;;15.50;92.10;;;;;;5077404;28;20052;-67
2022/09/04 01:23:51;;;;;;;4.53;1.73;;;15.40;92.30;;;;;;5096256;28;20043;-67
2022/09/04 01:26:35;;;;;;;5.22;1.98;;;15.40;92.20;;;;;;5076987;28;20111;-67
2022/09/04 01:29:25;;;;;;;6.63;1.98;;;15.30;92.30;;;;;;5083103;27;20043;-67
2022/09/04 01:31:57;;;;;;;5.43;2.22;;;15.30;92.40;;;;;;5118682;27;20510;-67
2022/09/04 01:34:45;;;;;;;4.63;1.95;;;15.30;92.60;;;;;;5117648;27;20043;-67
2022/09/04 01:37:42;;;;;;;5.00;1.88;;;15.20;92.70;;;;;;5136249;27;20054;-67
2022/09/04 01:40:18;;;;;;;5.25;2.20;;;15.20;93.00;;;;;;5135551;27;20043;-67
2022/09/04 01:42:53;;;;;;;8.77;2.20;;;15.20;93.10;;;;;;5118192;27;20036;-67
2022/09/04 01:45:43;;;;;;;5.97;2.10;;;15.10;93.30;;;;;;5120078;27;20073;-67
2022/09/04 01:48:15;;;;;;;4.00;2.00;;;15.10;93.40;;;;;;5096907;28;20625;-67
2022/09/04 01:50:45;;;;;;;6.22;2.30;;;15.10;93.60;;;;;;5116202;28;20391;-67
2022/09/04 01:53:25;;;;;;;4.30;1.80;;;15.00;93.70;;;;;;5115336;28;20540;-67
2022/09/04 01:56:13;;;;;;;6.97;2.00;;;15.00;93.80;;;;;;5094098;27;20114;-67
2022/09/04 01:59:23;;;;;;;5.88;2.70;;;15.00;94.20;;;;;;5136239;27;20127;-67
2022/09/04 02:02:03;;;;;;;4.75;2.00;;;15.00;94.10;;;;;;5095328;27;20054;-67
2022/09/04 02:04:50;;;;;;;6.82;2.20;;;15.00;94.40;;;;;;5136120;27;20544;-67
2022/09/04 02:07:30;;;;;;;5.93;2.00;;;14.90;94.40;;;;;;5117595;27;20039;-67
2022/09/04 02:10:16;;;;;;;6.40;2.28;;;14.90;94.50;;;;;;5106257;28;20086;-67
2022/09/04 02:13:13;;;;;;;5.13;2.00;;;14.90;94.70;;;;;;5095155;28;20040;-67
2022/09/04 02:15:57;;;;;;;5.13;2.40;;;14.90;94.80;;;;;;5076608;28;20557;-67
2022/09/04 02:19:02;;;;;;;4.80;2.35;;;14.80;94.90;;;;;;5094435;28;20090;-67
2022/09/04 02:21:50;;;;;;;5.17;2.33;;;14.80;94.80;;;;;;5092207;28;20063;-67
2022/09/04 02:24:35;;;;;;;4.70;1.90;;;14.80;95.10;;;;;;5103265;27;20031;-67
2022/09/04 02:27:17;;;;;;;6.20;2.35;;;14.70;95.10;;;;;;5117402;27;20035;-68
2022/09/04 02:30:01;;;;;;;5.20;2.13;;;14.70;95.10;;;;;;5117326;27;20039;-67
2022/09/04 02:32:44;;;;;;;5.22;2.30;;;14.70;95.10;;;;;;5117088;27;20132;-67
2022/09/04 02:35:15;;;;;;;3.83;1.95;;;14.70;95.30;;;;;;5135699;27;20031;-67
2022/09/04 02:37:47;;;;;;;9.18;2.00;;;14.70;95.30;;;;;;5135123;27;20050;-67
2022/09/04 02:40:30;;;;;;;7.22;1.95;;;14.70;95.60;;;;;;5098478;28;20040;-67
2022/09/04 02:43:19;;;;;;;6.45;2.53;;;14.70;95.70;;;;;;5094922;28;20107;-67
2022/09/04 02:46:20;;;;;;;3.83;1.85;;;14.60;95.60;;;;;;5076712;28;20071;-67
2022/09/04 02:49:23;;;;;;;5.03;2.00;;;14.60;95.80;;;;;;5076479;28;20072;-67
2022/09/04 02:52:10;;;;;;;5.47;2.47;;;14.60;95.90;;;;;;5049665;27;20121;-67
2022/09/04 02:54:47;;;;;;;6.43;2.83;;;14.60;96.20;;;;;;5117035;27;20479;-67
2022/09/04 02:57:41;;;;;;;5.05;2.25;;;14.60;96.70;;;;;;5099360;27;20095;-67
2022/09/04 03:00:16;;;;;;;5.00;2.38;;;14.50;96.60;;;;;;5098887;27;20043;-68
2022/09/04 03:02:50;;;;;;;5.30;2.28;;;14.50;96.60;;;;;;5117457;27;20488;-67
2022/09/04 03:05:24;;;;;;;5.37;2.10;;;14.50;96.80;;;;;;5123124;27;20031;-67
2022/09/04 03:08:19;;;;;;;4.60;1.95;;;14.50;96.90;;;;;;5114724;27;20110;-67
2022/09/04 03:10:55;;;;;;;4.95;2.53;;;14.50;97.20;;;;;;5135454;27;20395;-67
2022/09/04 03:13:52;;;;;;;5.88;2.28;;;14.40;97.30;;;;;;5115880;27;20121;-67
2022/09/04 03:16:20;;;;;;;5.90;2.70;;;14.40;97.50;;;;;;5134383;27;20463;-67
2022/09/04 03:19:18;;;;;;;5.90;2.40;;;14.40;97.70;;;;;;5116063;27;20543;-67
2022/09/04 03:22:02;;;;;;;4.90;2.38;;;14.40;98.10;;;;;;5121145;27;20487;-67
2022/09/04 03:25:01;;;;;;;5.57;2.17;;;14.30;98.00;;;;;;5095867;28;20039;-67
2022/09/04 03:27:31;;;;;;;5.85;2.50;;;14.30;98.30;;;;;;5007396;28;20399;-67
2022/09/04 03:29:57;;;;;;;6.78;2.63;;;14.30;98.30;;;;;;5113956;28;20035;-67
2022/09/04 03:32:25;;;;;;;6.55;2.85;;;14.30;98.50;;;;;;5113636;28;20043;-67
2022/09/04 03:34:58;;;;;;;4.35;2.22;;;14.30;98.60;;;;;;5095796;28;20395;-67
2022/09/04 03:37:41;;;;;;;10.13;2.67;;;14.30;98.90;;;;;;5113930;28;20047;-67
2022/09/04 03:40:07;;;;;;;5.88;2.63;;;14.30;99.10;;;;;;5112821;28;20547;-67
2022/09/04 03:42:42;;;;;;;5.70;2.15;;;14.20;99.00;;;;;;5095564;28;20118;-67
2022/09/04 03:45:26;;;;;;;8.63;2.60;;;14.20;99.20;;;;;;5095120;28;20158;-67
2022/09/04 03:48:29;;;;;;;5.10;2.55;;;14.10;99.30;;;;;;5112321;27;20422;-67
2022/09/04 03:51:00;;;;;;;7.38;2.67;;;14.20;99.60;;;;;;5129900;27;20044;-67
2022/09/04 03:54:06;;;;;;;4.82;2.80;;;14.10;99.70;;;;;;5113423;28;20472;-67
2022/09/04 03:56:40;;;;;;;5.60;2.47;;;14.10;99.90;;;;;;5113759;28;20077;-67
2022/09/04 03:59:18;;;;;;;6.43;2.88;;;14.10;99.90;;;;;;5094942;28;20047;-67
2022/09/04 04:02:17;;;;;;;8.45;3.10;;;14.10;99.90;;;;;;5077853;28;20511;-67
2022/09/04 04:04:51;;;;;;;5.20;2.80;;;14.10;99.90;;;;;;5113362;28;20115;-67
2022/09/04 04:07:27;;;;;;;6.03;2.67;;;14.10;99.90;;;;;;5094704;28;20043;-67
2022/09/04 04:10:08;;;;;;;5.90;2.72;;;14.10;99.90;;;;;;5095029;28;20035;-67
2022/09/04 04:12:53;;;;;;;6.20;2.50;;;14.10;99.90;;;;;;5095400;28;20053;-67
2022/09/04 04:15:45;;;;;;;4.70;2.75;;;14.10;99.90;;;;;;5112425;28;20047;-67
2022/09/04 04:18:33;;;;;;;5.28;2.78;;;14.10;99.90;;;;;;5112599;27;20093;-67
2022/09/04 04:21:20;;;;;;;6.85;3.65;;;14.10;99.90;;;;;;5098438;27;20153;-67
2022/09/04 04:24:05;;;;;;;6.22;2.80;;;14.10;99.90;;;;;;5133391;27;20391;-67
2022/09/04 04:26:48;;;;;;;6.70;2.88;;;14.10;99.90;;;;;;5133748;27;20064;-67
2022/09/04 04:29:35;;;;;;;5.63;2.50;;;14.10;99.90;;;;;;5097508;28;20039;-67
2022/09/04 04:32:38;;;;;;;6.32;3.17;;;14.10;99.90;;;;;;5114779;27;20498;-67
2022/09/04 04:35:10;;;;;;;4.75;2.53;;;14.10;99.90;;;;;;5113780;27;20432;-67
2022/09/04 04:37:58;;;;;;;8.50;2.85;;;14.10;99.90;;;;;;5097681;27;20047;-67
2022/09/04 04:40:59;;;;;;;7.35;3.03;;;14.10;99.90;;;;;;5114665;27;20046;-67
2022/09/04 04:43:33;;;;;;;7.82;3.20;;;14.20;99.90;;;;;;5075982;27;20043;-67
2022/09/04 04:46:38;;;;;;;6.28;3.13;;;14.20;99.90;;;;;;5093492;28;20055;-67
2022/09/04 04:49:37;;;;;;;7.05;2.67;;;14.20;99.90;;;;;;5093651;28;20080;-67
2022/09/04 04:52:17;;;;;;;6.72;3.20;;;14.20;99.90;;;;;;5093794;28;20054;-67
2022/09/04 04:54:50;;;;;;;6.70;2.80;;;14.10;99.90;;;;;;5094687;28;20484;-67
2022/09/04 04:57:30;;;;;;;6.65;3.35;;;14.10;99.90;;;;;;5093381;28;20373;-67
2022/09/04 05:00:20;;;;;;;5.70;2.95;;;14.10;99.90;;;;;;5094341;28;20036;-66
2022/09/04 05:03:23;;;;;;;6.95;2.65;;;14.10;99.90;;;;;;5115177;28;20391;-67
2022/09/04 05:06:12;;;;;;;5.63;2.85;;;14.10;99.90;;;;;;5112412;28;20043;-62
2022/09/04 05:08:47;;;;;;;5.13;2.53;;;14.10;99.90;;;;;;5115146;28;20043;-62
2022/09/04 05:11:50;;;;;;;5.50;2.80;;;14.10;99.90;;;;;;5132150;28;20127;-62
2022/09/04 05:14:35;;;;;;;6.95;2.88;;;14.10;99.90;;;;;;5132346;28;20118;-62
2022/09/04 05:17:28;;;;;;;5.57;2.85;;;14.10;99.90;;;;;;5133200;28;20031;-62
2022/09/04 05:20:17;;;;;;;6.07;3.17;;;14.20;99.90;;;;;;5102938;28;20503;-62
2022/09/04 05:22:55;;;;;;;7.13;2.60;;;14.20;99.90;;;;;;5042935;28;20135;-62
2022/09/04 05:25:53;;;;;;;6.43;3.30;;;14.20;99.90;;;;;;5082338;28;20484;-62
2022/09/04 05:28:39;;;;;;;7.05;2.90;;;14.20;99.90;;;;;;5068794;28;20062;-62
2022/09/04 05:31:37;;;;;;;8.38;3.33;;;14.20;99.90;;;;;;5093766;28;20043;-62
2022/09/04 05:34:19;;;;;;;5.55;2.53;;;14.30;99.90;;;;;;5080188;28;20052;-62
2022/09/04 05:37:14;;;;;;;6.90;3.13;;;14.30;99.90;;;;;;5094162;28;20096;-62
2022/09/04 05:39:59;;;;;;;7.60;3.47;;;14.30;99.90;;;;;;5101365;28;20035;-67
2022/09/04 05:42:52;;;;;;;5.47;2.70;;;14.30;99.90;;;;;;5132504;28;20035;-67
2022/09/04 05:45:35;;;;;;;7.30;3.30;;;14.40;99.90;;;;;;5131945;27;20045;-67
2022/09/04 05:48:20;;;;;;;7.13;3.33;;;14.40;99.90;;;;;;5095344;28;20089;-67
2022/09/04 05:51:09;;;;;;;4.70;3.00;;;14.50;99.90;;;;;;5092006;27;20050;-67
2022/09/04 05:53:50;;;;;;;5.93;2.97;;;14.50;99.90;;;;;;5136218;27;20071;-67
2022/09/04 05:56:31;;;;;;;6.88;3.13;;;14.50;99.90;;;;;;5117636;27;20049;-67
2022/09/04 05:59:36;;;;;;;4.85;2.80;;;14.50;99.90;;;;;;5118628;27;20122;-67
2022/09/04 06:02:29;;;;;;;5.38;2.90;;;14.60;99.90;;;;;;5115472;27;20039;-67
2022/09/04 06:05:20;;;;;;;5.45;3.00;;;14.60;99.90;;;;;;5136729;27;20043;-67
2022/09/04 06:08:07;;;;;;;5.30;2.72;;;14.70;99.90;;;;;;5135803;27;20039;-67
2022/09/04 06:11:04;;;;;;;5.93;2.95;;;14.70;99.90;;;;;;5117952;27;20036;-67
2022/09/04 06:13:48;;;;;;;7.15;2.88;;;14.70;99.90;;;;;;5117626;27;20038;-67
2022/09/04 06:16:39;;;;;;;7.75;2.47;;;14.80;99.90;;;;;;5116629;27;20042;-67
2022/09/04 06:19:16;;;;;;;6.07;3.17;;;14.80;99.90;;;;;;5116788;27;20051;-67
2022/09/04 06:22:18;;;;;;;7.05;3.30;;;14.80;99.90;;;;;;5135661;27;20047;-68
2022/09/04 06:25:02;;;;;;;6.85;3.70;;;14.80;99.90;;;;;;5126796;27;20051;-67
2022/09/04 06:27:47;;;;;;;6.63;3.08;;;14.80;99.90;;;;;;5114242;27;20352;-67
2022/09/04 06:30:14;;;;;;;5.82;3.10;;;14.90;99.90;;;;;;5113885;27;20039;-67
2022/09/04 06:32:59;;;;;;;6.68;3.30;;;14.90;99.90;;;;;;5111773;27;20039;-67
2022/09/04 06:35:44;;;;;;;6.10;2.83;;;14.90;99.90;;;;;;5112618;27;20407;-67
2022/09/04 06:38:52;;;;;;;8.30;2.90;;;15.00;99.90;;;;;;5114213;27;20760;-67
2022/09/04 06:41:29;;;;;;;6.38;3.17;;;15.00;99.90;;;;;;5114272;27;20050;-67
2022/09/04 06:44:13;;;;;;;5.63;3.20;;;15.10;99.90;;;;;;5132561;27;20057;-67
2022/09/04 06:47:04;;;;;;;5.78;2.88;;;15.30;99.90;;;;;;5097349;28;20104;-67
2022/09/04 06:49:59;;;;;;;7.60;2.97;;;15.40;99.90;;;;;;5107696;27;20084;-67
2022/09/04 06:52:46;;;;;;;5.63;2.40;;;15.60;99.90;;;;;;5048474;28;20757;-67
2022/09/04 06:55:20;;;;;;;6.75;2.95;;;15.80;99.90;;;;;;5093711;28;20281;-67
2022/09/04 06:57:54;;;;;;;6.75;3.15;;;15.90;99.90;;;;;;5112909;27;20044;-67
2022/09/04 07:00:20;;;;;;;6.43;2.88;;;16.10;99.90;;;;;;5092870;28;20040;-67
2022/09/04 07:02:52;;;;;;;4.75;2.70;;;16.20;99.90;;;;;;5112234;28;20039;-67
2022/09/04 07:05:35;;;;;;;6.50;2.92;;;16.30;99.90;;;;;;5093124;28;20099;-67
2022/09/04 07:08:01;;;;;;;7.13;2.50;;;16.40;99.90;;;;;;5085864;28;20043;-67
2022/09/04 07:10:39;;;;;;;6.07;3.00;;;16.40;99.70;;;;;;5119399;27;20035;-67
2022/09/04 07:13:10;;;;;;;5.20;2.80;;;16.50;99.30;;;;;;5102962;28;20398;-67
2022/09/04 07:15:48;;;;;;;6.20;2.75;;;16.50;99.20;;;;;;5093615;28;20122;-67
2022/09/04 07:18:45;;;;;;;4.95;2.85;;;16.60;99.00;;;;;;5110471;27;20504;-67
2022/09/04 07:21:20;;;;;;;5.05;2.83;;;16.70;98.70;;;;;;5092591;28;20445;-68
2022/09/04 07:24:12;;;;;;;5.93;2.78;;;16.80;98.50;;;;;;5110126;27;20039;-68
2022/09/04 07:26:59;;;;;;;6.72;2.75;;;17.00;98.40;;;;;;5037550;28;20051;-68
2022/09/04 07:29:33;;;;;;;8.35;2.80;;;17.00;98.30;;;;;;5072601;28;20054;-68
2022/09/04 07:32:07;;;;;;;5.22;2.42;;;17.10;98.10;;;;;;5072663;28;20080;-68
2022/09/04 07:35:17;;;;;;;8.30;2.70;;;17.20;98.00;;;;;;5072900;28;20048;-68
2022/09/04 07:37:57;;;;;;;4.80;2.40;;;17.20;97.90;;;;;;4992047;28;20153;-68
2022/09/04 07:40:31;;;;;;;5.13;2.90;;;17.30;97.80;;;;;;4977626;28;22430;-68
2022/09/04 07:43:20;;;;;;;5.63;2.85;;;17.40;97.80;;;;;;5045053;28;20381;-68
2022/09/04 07:45:57;;;;;;;5.38;2.55;;;17.40;97.70;;;;;;5105230;28;20043;-68
2022/09/04 07:48:57;;;;;;;5.47;2.55;;;17.50;97.50;;;;;;5111652;27;20523;-68
2022/09/04 07:51:31;;;;;;;6.45;2.63;;;17.60;97.30;;;;;;5129243;27;20100;-67
2022/09/04 07:54:22;;;;;;;5.63;2.90;;;17.70;97.40;;;;;;5109550;27;20042;-67
2022/09/04 07:57:22;;;;;;;7.65;3.28;;;17.80;97.30;;;;;;5110888;28;20047;-67
2022/09/04 08:00:07;;;;;;;7.43;3.35;;;17.90;96.80;;;;;;5090583;28;20114;-68
2022/09/04 08:02:49;;;;;;;4.90;2.58;;;18.10;96.40;;;;;;5101216;27;20035;-68
2022/09/04 08:05:30;;;;;;;4.72;2.70;;;18.20;96.10;;;;;;5097521;27;20041;-69
2022/09/04 08:08:38;;;;;;;7.72;3.45;;;18.30;95.90;;;;;;5113648;28;20122;-67
2022/09/04 08:11:31;;;;;;;6.35;2.70;;;18.40;95.70;;;;;;5034829;28;20105;-69
2022/09/04 08:14:23;;;;;;;6.30;2.50;;;18.50;95.50;;;;;;5075311;28;20035;-68
2022/09/04 08:16:55;;;;;;;5.03;2.85;;;18.60;95.20;;;;;;5119767;27;20040;-67
2022/09/04 08:19:45;;;;;;;12.20;3.20;;;18.60;95.00;;;;;;5130240;27;20089;-67
2022/09/04 08:22:28;;;;;;;5.50;2.65;;;18.70;94.70;;;;;;5111647;27;20054;-67
2022/09/04 08:25:09;;;;;;;6.55;2.40;;;18.80;94.60;;;;;;5118435;27;20042;-68
2022/09/04 08:28:16;;;;;;;5.22;2.65;;;18.90;94.30;;;;;;5053406;28;20075;-67
2022/09/04 08:31:00;;;;;;;5.18;2.90;;;19.00;94.40;;;;;;5113779;27;20095;-68
2022/09/04 08:33:32;;;;;;;5.85;2.88;;;19.10;94.30;;;;;;5088079;28;20557;-68
2022/09/04 08:36:17;;;;;;;8.45;3.30;;;19.20;94.20;;;;;;5068574;28;20070;-69
2022/09/04 08:38:55;;;;;;;6.18;2.83;;;19.30;93.70;;;;;;5087561;28;20051;-68
2022/09/04 08:41:40;;;;;;;5.43;2.78;;;19.30;93.80;;;;;;5105382;28;20468;-68
2022/09/04 08:44:54;;;;;;;8.10;3.03;;;19.50;93.30;;;;;;5091886;28;20111;-68
2022/09/04 08:47:38;;;;;;;6.65;2.97;;;19.50;93.00;;;;;;5033181;28;20048;-68
2022/09/04 08:50:26;;;;;;;5.75;2.92;;;19.60;93.00;;;;;;5109038;28;20047;-68
2022/09/04 08:53:07;;;;;;;5.38;2.35;;;19.60;93.10;;;;;;5092118;28;20070;-67
2022/09/04 08:55:57;;;;;;;5.60;2.58;;;19.70;92.70;;;;;;5092114;28;20039;-68
2022/09/04 08:59:03;;;;;;;6.75;2.50;;;19.80;92.70;;;;;;5119292;28;20031;-68
2022/09/04 09:01:53;;;;;;;5.13;2.25;;;19.80;92.70;;;;;;5087305;28;20532;-68
2022/09/04 09:04:25;;;;;;;7.60;2.90;;;19.90;92.70;;;;;;5091028;28;20050;-68
2022/09/04 09:07:27;;;;;;;4.93;2.03;;;20.00;92.60;;;;;;5112507;28;20136;-68
2022/09/04 09:10:08;;;;;;;8.60;2.78;;;20.10;92.50;;;;;;5112304;28;20130;-68
2022/09/04 09:13:03;;;;;;;4.78;2.35;;;20.20;92.50;;;;;;5125485;28;20110;-68
2022/09/04 09:15:56;;;;;;;4.05;2.05;;;20.20;92.00;;;;;;5115509;28;20035;-67
2022/09/04 09:18:45;;;;;;;5.10;2.70;;;20.30;92.00;;;;;;5109487;28;20556;-67
2022/09/04 09:21:25;;;;;;;5.30;2.75;;;20.40;92.20;;;;;;5112839;27;20051;-67
2022/09/04 09:23:57;;;;;;;7.38;2.72;;;20.50;91.90;;;;;;5116098;27;20043;-67
2022/09/04 09:26:35;;;;;;;4.80;2.38;;;20.50;91.90;;;;;;5111870;27;20036;-68
2022/09/04 09:29:33;;;;;;;5.60;2.72;;;20.60;91.80;;;;;;5104941;28;20044;-68
2022/09/04 09:32:27;;;;;;;4.50;2.20;;;20.70;91.40;;;;;;5097419;28;20082;-66
2022/09/04 09:35:29;;;;;;;6.20;2.17;;;20.80;91.30;;;;;;5090653;27;20039;-67
2022/09/04 09:38:04;;;;;;;5.35;2.53;;;20.90;91.10;;;;;;5126153;27;20058;-66
2022/09/04 09:41:02;;;;;;;6.18;2.53;;;20.90;90.90;;;;;;5077160;28;20076;-66
2022/09/04 09:44:04;;;;;;;5.00;2.17;;;21.10;91.00;;;;;;5061036;28;20048;-66
2022/09/04 09:46:58;;;;;;;7.22;2.30;;;21.20;90.40;;;;;;5110033;27;20046;-68
2022/09/04 09:49:54;;;;;;;5.10;2.28;;;21.30;90.30;;;;;;5097860;28;20050;-66
2022/09/04 09:52:47;;;;;;;5.65;2.95;;;21.50;90.20;;;;;;5098920;27;20043;-69
2022/09/04 09:55:29;;;;;;;4.55;2.30;;;21.60;89.70;;;;;;5105214;27;20039;-68
2022/09/04 09:58:07;;;;;;;5.25;2.17;;;21.70;89.20;;;;;;5132639;27;20383;-69
2022/09/04 10:00:58;;;;;;;5.25;2.00;;;21.90;88.80;;;;;;5097089;28;20123;-67
2022/09/04 10:04:11;;;;;;;5.53;2.03;;;22.00;89.30;;;;;;5097231;28;20043;-68
2022/09/04 10:07:18;;;;;;;5.40;2.20;;;22.10;88.20;;;;;;5044084;28;20044;-67
2022/09/04 10:10:00;;;;;;;5.63;2.20;;;22.10;86.50;;;;;;5097677;28;20564;-67
2022/09/04 10:13:00;;;;;;;5.82;2.47;;;22.20;85.60;;;;;;5096801;28;20040;-66
2022/09/04 10:15:31;;;;;;;4.88;2.42;;;22.20;84.90;;;;;;5096215;28;20151;-68
2022/09/04 10:18:35;;;;;;;4.22;1.85;;;22.20;85.00;;;;;;5097109;28;20107;-68
2022/09/04 10:21:28;;;;;;;4.32;1.50;;;22.30;84.30;;;;;;5075602;28;20047;-68
2022/09/04 10:24:31;;;;;;;6.63;2.17;;;22.40;83.60;;;;;;5122196;27;20031;-67
2022/09/04 10:27:18;;;;;;;4.32;1.92;;;22.50;84.10;;;;;;5073033;27;20043;-67
2022/09/04 10:30:18;;;;;;;6.68;2.10;;;22.60;84.00;;;;;;5131360;27;20117;-67
2022/09/04 10:33:20;;;;;;;4.68;2.05;;;22.60;83.10;;;;;;5040398;28;20118;-67
2022/09/04 10:36:18;;;;;;;4.95;2.15;;;22.70;82.60;;;;;;5114879;28;20543;-67
2022/09/04 10:42:08;;;;;;;4.82;1.80;;;22.70;82.70;;;;;;5109977;27;20050;-67
2022/09/04 10:44:33;;;;;;;5.05;2.00;;;22.90;83.10;;;;;;5083713;28;20101;-68
2022/09/04 10:47:26;;;;;;;4.05;1.92;;;23.00;82.80;;;;;;5125130;27;20494;-67
2022/09/04 10:50:15;;;;;;;4.43;2.00;;;23.10;80.00;;;;;;5120871;27;20043;-71
2022/09/04 10:53:07;;;;;;;5.63;2.15;;;23.20;80.20;;;;;;5107164;27;20168;-70
2022/09/04 10:56:00;;;;;;;5.70;2.10;;;23.30;78.30;;;;;;5102728;28;20031;-70
2022/09/04 10:58:39;;;;;;;4.45;1.95;;;23.40;77.90;;;;;;5096095;28;20044;-69
2022/09/04 11:01:43;;;;;;;5.30;2.00;;;23.40;77.80;;;;;;5097452;27;20047;-69
2022/09/04 11:04:32;;;;;;;4.40;2.00;;;23.50;77.20;;;;;;5113299;27;20050;-69
2022/09/04 11:07:30;;;;;;;3.95;1.95;;;23.60;78.10;;;;;;5098716;27;20067;-69
2022/09/04 11:10:11;;;;;;;3.47;1.70;;;23.70;77.30;;;;;;5079267;28;20084;-69
2022/09/04 11:12:57;;;;;;;5.35;1.98;;;23.80;76.50;;;;;;5124560;27;20031;-71
2022/09/04 11:15:54;;;;;;;3.38;1.85;;;23.90;76.60;;;;;;5100065;27;20138;-70
2022/09/04 11:19:01;;;;;;;6.25;2.13;;;23.90;75.60;;;;;;5115398;27;20054;-70
2022/09/04 11:21:48;;;;;;;3.65;1.80;;;23.90;75.50;;;;;;5112064;27;20130;-69
2022/09/04 11:24:46;;;;;;;4.20;1.70;;;24.00;76.10;;;;;;5115354;27;20043;-70
2022/09/04 11:27:30;;;;;;;4.60;1.77;;;24.10;75.30;;;;;;5133970;27;20039;-70
2022/09/04 11:30:15;;;;;;;3.75;1.77;;;24.10;74.70;;;;;;5116464;27;20039;-69
2022/09/04 11:33:02;;;;;;;5.07;2.42;;;24.20;74.80;;;;;;5134061;27;20047;-69
2022/09/04 11:35:56;;;;;;;3.58;1.70;;;24.30;74.80;;;;;;5134684;27;20377;-70
2022/09/04 11:38:27;;;;;;;4.40;2.00;;;24.40;74.70;;;;;;5133703;27;20364;-70
2022/09/04 11:41:16;;;;;;;5.13;2.05;;;24.40;73.30;;;;;;5115777;27;20120;-70
2022/09/04 11:44:21;;;;;;;5.03;1.70;;;24.40;72.60;;;;;;5115778;27;20050;-70
2022/09/04 11:47:12;;;;;;;4.10;1.67;;;24.40;72.40;;;;;;5129047;27;20047;-70
2022/09/04 11:49:41;;;;;;;4.15;1.77;;;24.50;72.30;;;;;;5116375;27;20574;-70
2022/09/04 11:52:36;;;;;;;4.35;1.77;;;24.50;72.50;;;;;;5114703;27;20039;-70
2022/09/04 11:55:28;;;;;;;4.85;1.90;;;24.50;72.50;;;;;;5077091;27;20085;-70
2022/09/04 11:58:15;;;;;;;4.53;1.60;;;24.60;72.90;;;;;;5094986;27;20051;-69
2022/09/04 12:00:41;;;;;;;5.40;1.80;;;24.60;72.20;;;;;;5115015;27;20043;-70
2022/09/04 12:03:25;;;;;;;4.38;1.70;;;24.70;71.90;;;;;;5115262;27;20383;-70
2022/09/04 12:06:08;;;;;;;5.25;2.15;;;24.70;71.50;;;;;;5134265;27;20418;-70
2022/09/04 12:08:42;;;;;;;5.40;1.97;;;24.70;71.40;;;;;;5133880;27;20074;-70
2022/09/04 12:11:11;;;;;;;3.95;1.70;;;24.80;71.50;;;;;;5124758;27;20101;-69
2022/09/04 12:13:39;;;;;;;5.03;1.95;;;24.90;71.00;;;;;;5094949;28;20130;-70
2022/09/04 12:16:25;;;;;;;6.00;2.03;;;25.00;71.10;;;;;;5112789;28;20067;-69
2022/09/04 12:19:10;;;;;;;5.22;2.20;;;25.00;70.40;;;;;;5080453;27;20055;-70
2022/09/04 12:21:57;;;;;;;6.20;2.13;;;24.90;70.70;;;;;;5067540;27;20051;-69
2022/09/04 12:24:57;;;;;;;5.85;2.05;;;25.10;70.30;;;;;;5127835;27;20101;-68
2022/09/04 12:28:00;;;;;;;4.22;1.70;;;25.10;70.00;;;;;;5130208;27;20054;-68
2022/09/04 12:30:58;;;;;;;4.90;1.83;;;25.10;69.80;;;;;;5112061;28;20047;-68
2022/09/04 12:33:42;;;;;;;5.75;2.25;;;25.20;71.20;;;;;;5110749;28;20088;-68
2022/09/04 12:36:20;;;;;;;4.53;1.98;;;25.20;69.60;;;;;;5077928;27;20046;-68
2022/09/04 12:39:19;;;;;;;5.85;2.00;;;25.20;69.90;;;;;;5112378;27;20057;-68
2022/09/04 12:42:06;;;;;;;4.68;1.88;;;25.20;69.50;;;;;;5089646;28;20051;-68
2022/09/04 12:44:48;;;;;;;4.20;1.80;;;25.10;69.90;;;;;;5088540;28;20043;-68
2022/09/04 12:47:41;;;;;;;3.88;1.80;;;25.10;70.00;;;;;;5110049;28;20615;-68
2022/09/04 12:50:30;;;;;;;9.60;2.58;;;25.20;69.90;;;;;;5117692;27;20023;-68
2022/09/04 12:53:03;;;;;;;4.85;2.05;;;25.30;70.50;;;;;;5106647;27;20514;-68
2022/09/04 12:55:44;;;;;;;3.77;2.00;;;25.30;69.90;;;;;;5092106;28;20047;-68
2022/09/04 12:58:33;;;;;;;4.72;2.00;;;25.40;69.90;;;;;;5090202;28;20663;-68
2022/09/04 13:01:14;;;;;;;4.78;1.92;;;25.50;69.60;;;;;;5091573;28;20055;-67
2022/09/04 13:03:46;;;;;;;5.50;2.30;;;25.60;69.50;;;;;;5090122;28;20036;-67
2022/09/04 13:06:32;;;;;;;6.30;2.60;;;25.70;69.50;;;;;;5109092;28;20046;-68
2022/09/04 13:09:17;;;;;;;4.78;2.13;;;25.70;68.70;;;;;;5098468;28;20140;-68
2022/09/04 13:12:31;;;;;;;4.68;2.05;;;25.60;68.50;;;;;;5111822;28;20495;-68
2022/09/04 13:15:18;;;;;;;3.93;1.90;;;25.60;68.40;;;;;;5073532;28;20399;-68
2022/09/04 13:18:13;;;;;;;5.45;1.98;;;25.60;68.90;;;;;;5105731;28;20456;-68
2022/09/04 13:20:44;;;;;;;5.20;2.05;;;25.60;69.20;;;;;;5067926;28;20049;-68
2022/09/04 13:23:16;;;;;;;4.10;2.00;;;25.70;68.70;;;;;;5067784;28;20041;-68
2022/09/04 13:25:51;;;;;;;5.97;2.10;;;25.80;67.90;;;;;;5067328;28;20075;-68
2022/09/04 13:28:58;;;;;;;7.63;1.98;;;25.70;67.90;;;;;;5069648;28;20086;-68
2022/09/04 13:31:53;;;;;;;4.40;1.90;;;25.70;67.70;;;;;;5029952;28;20061;-68
2022/09/04 13:34:25;;;;;;;4.03;2.15;;;25.60;67.10;;;;;;5068463;28;20527;-68
2022/09/04 13:37:03;;;;;;;8.27;2.25;;;25.50;67.50;;;;;;5065962;28;20399;-67
2022/09/04 13:40:06;;;;;;;4.50;2.15;;;25.50;67.40;;;;;;5093708;28;20051;-67
2022/09/04 13:43:10;;;;;;;4.55;2.20;;;25.60;68.50;;;;;;5089068;28;20594;-67
2022/09/04 13:45:46;;;;;;;5.65;2.22;;;25.70;67.90;;;;;;5080535;28;20607;-68
2022/09/04 13:48:31;;;;;;;7.05;2.30;;;25.80;67.00;;;;;;5067253;28;20087;-68
2022/09/04 13:51:11;;;;;;;5.57;2.17;;;25.90;67.10;;;;;;5069048;28;20098;-68
2022/09/04 13:53:47;;;;;;;6.15;2.15;;;26.00;67.50;;;;;;5066401;28;20493;-68
2022/09/04 13:56:21;;;;;;;3.65;1.92;;;26.00;67.00;;;;;;5067399;28;20094;-68
2022/09/04 13:58:50;;;;;;;;;;;26.10;66.80;;;;;;5075069;28;20461;-68
2022/09/04 14:01:24;;;;;;;3.78;2.13;;;26.10;66.70;;;;;;5107228;28;20018;-68
2022/09/04 14:04:06;;;;;;;3.75;2.00;;;26.20;66.00;;;;;;5108122;28;20163;-68
2022/09/04 14:06:35;;;;;;;4.65;2.10;;;26.20;66.10;;;;;;5108832;28;20043;-68
2022/09/04 14:09:03;;;;;;;4.10;2.20;;;26.30;65.80;;;;;;5096936;28;20048;-68
2022/09/04 14:11:39;;;;;;;4.15;2.10;;;26.30;65.90;;;;;;5088976;28;20066;-68
2022/09/04 14:14:12;;;;;;;5.05;2.00;;;26.30;65.30;;;;;;5091065;28;20044;-68
2022/09/04 14:16:40;;;;;;;6.13;2.42;;;26.20;65.70;;;;;;5092734;28;20032;-68
2022/09/04 14:19:31;;;;;;;4.38;2.22;;;26.20;65.70;;;;;;5090237;28;20519;-68
2022/09/04 14:22:15;;;;;;;3.85;1.95;;;26.10;65.40;;;;;;5092184;28;20056;-68
2022/09/04 14:24:50;;;;;;;6.55;2.00;;;26.10;65.90;;;;;;5095884;28;20081;-68
2022/09/04 14:27:24;;;;;;;4.15;2.10;;;26.00;65.30;;;;;;5091565;28;20044;-68